Main page
METAR-TAF:

METAR-TAF

Airports :

Kassel Airport

Kassel, Germany

latitude: 51-24N, longitude: 009-23E, elevation: 277 m

Current weather observation

The report was made 42 minutes ago, at 08:20 UTC
Wind 3 kt from the North/Northwest, varying between West/Northwest and Northeast
Temperature -1°C
Humidity 69%
Pressure 1030 hPa
Visibility 10 km or more
no clouds below 1500 m and no cumulonimbus

METAR: EDVK 180820Z 34003KT 290V040 CAVOK M01/M06 Q1030

Time: 10:02 (09:02 UTC)

Forecast

The report was made 1 hour and 2 minutes ago, at 08:00 UTC
Forecast valid from 18 at 09 UTC to 18 at 18 UTC
Wind 3 kt from variable directions
Visibility 10 km or more
no clouds below 1500 m and no cumulonimbus
Becoming
from 18 at 09 UTC to 18 at 11 UTC
Wind 8 kt from the Northeast

TAF: EDVK 180800Z 1809/1818 VRB03KT CAVOK BECMG 1809/1811 04008KT

Weather observations and forecasts of more than 4000 airports (METAR and TAF reports).

The available stations are represented by yellow and red dots on the map.

Hover mouse over dot to see the name of the station.

Then click to see weather observations and forecasts.

To change the map : click on the green buttons with a black cross to zoom in, on the green button with a dash to zoom out, or on the green arrows for adjacent maps.


METAR-TAF: